Time;durP1;ratioP1;P1;durP2;ratioP2;P2;SDS_P1;SDS_P2;PMS_P1;PMS_P2;Temp;Humidity;BMP_temperature;BMP_pressure;BME280_temperature;BME280_humidity;BME280_pressure;Samples;Min_cycle;Max_cycle;Signal;HPM_P1;HPM_P2
2023/04/27 00:01:12;;;;;;;28.00;18.70;;;;;;;4.01;57.11;100563.98;112738;1241;21946;-80
2023/04/27 00:03:41;;;;;;;27.50;18.00;;;;;;;4.00;57.33;100564.85;112774;1241;22006;-81
2023/04/27 00:06:12;;;;;;;29.30;18.90;;;;;;;4.01;57.43;100565.89;112736;1241;21963;-80
2023/04/27 00:08:44;;;;;;;28.10;18.10;;;;;;;4.01;57.52;100562.78;112721;1241;21969;-80
2023/04/27 00:11:16;;;;;;;25.50;17.80;;;;;;;4.02;57.54;100563.13;112787;1234;23731;-80
2023/04/27 00:13:59;;;;;;;26.90;16.50;;;;;;;4.03;57.75;100560.70;113450;1234;22934;-80
2023/04/27 00:16:30;;;;;;;27.90;18.20;;;;;;;4.05;57.73;100559.83;113826;1234;21971;-79
2023/04/27 00:19:00;;;;;;;30.30;19.60;;;;;;;4.06;57.75;100560.49;113106;1240;23030;-79
2023/04/27 00:21:30;;;;;;;28.30;20.80;;;;;;;4.05;57.71;100558.44;112715;1240;21965;-79
2023/04/27 00:24:00;;;;;;;27.80;20.10;;;;;;;4.03;57.80;100558.64;112923;1236;23104;-79
2023/04/27 00:26:31;;;;;;;26.70;19.30;;;;;;;4.01;57.77;100561.73;113143;1239;22118;-79
2023/04/27 00:29:04;;;;;;;29.30;21.10;;;;;;;3.94;57.81;100554.58;113110;1240;23029;-79
2023/04/27 00:31:32;;;;;;;30.60;21.40;;;;;;;3.92;57.76;100561.13;113061;1240;22398;-79
2023/04/27 00:34:02;;;;;;;35.30;24.30;;;;;;;3.87;57.93;100560.82;112328;1245;22418;-79
2023/04/27 00:36:38;;;;;;;35.40;23.70;;;;;;;3.85;57.88;100564.95;112205;1239;22678;-80
2023/04/27 00:39:09;;;;;;;33.50;24.40;;;;;;;3.82;58.11;100568.94;112512;1244;23707;-79
2023/04/27 00:41:43;;;;;;;32.30;23.10;;;;;;;3.80;58.21;100573.09;112230;1247;22980;-79
2023/04/27 00:44:27;;;;;;;38.70;22.90;;;;;;;3.78;58.21;100573.10;112287;1247;23174;-80
2023/04/27 00:47:04;;;;;;;31.20;20.20;;;;;;;3.76;58.40;100578.45;112321;1247;22714;-78
2023/04/27 00:49:35;;;;;;;28.90;18.60;;;;;;;3.75;58.54;100579.31;112030;1239;21950;-79
2023/04/27 00:52:06;;;;;;;33.80;19.90;;;;;;;3.75;58.47;100578.80;112091;1247;22055;-80
2023/04/27 00:54:39;;;;;;;31.70;20.40;;;;;;;3.74;58.74;100583.63;112060;1247;22009;-79
2023/04/27 00:57:08;;;;;;;32.20;19.20;;;;;;;3.72;58.75;100583.98;112199;1244;22711;-80
2023/04/27 00:59:37;;;;;;;29.30;20.10;;;;;;;3.68;58.84;100582.46;112980;1234;23568;-81
2023/04/27 01:02:06;;;;;;;29.50;19.90;;;;;;;3.65;58.89;100584.38;113662;1234;22146;-79
2023/04/27 01:04:36;;;;;;;29.70;20.00;;;;;;;3.62;58.91;100584.73;113298;1234;23318;-80
2023/04/27 01:07:05;;;;;;;26.30;17.40;;;;;;;3.60;59.01;100587.15;113662;1234;23672;-79
2023/04/27 01:09:34;;;;;;;27.90;18.30;;;;;;;3.58;59.18;100586.13;113669;1234;21978;-80
2023/04/27 01:12:03;;;;;;;32.80;21.50;;;;;;;3.57;59.31;100587.33;113842;1234;21951;-80
2023/04/27 01:14:32;;;;;;;28.00;18.30;;;;;;;3.57;59.36;100589.41;113127;1239;21920;-81
2023/04/27 01:17:01;;;;;;;29.10;19.10;;;;;;;3.56;59.40;100588.02;112284;1245;21961;-79
2023/04/27 01:19:33;;;;;;;24.80;19.20;;;;;;;3.54;59.54;100586.14;112170;1245;21974;-79
2023/04/27 01:22:05;;;;;;;;;;;;;;;3.52;59.58;100584.09;112355;1245;22461;-78
2023/04/27 01:24:33;;;;;;;28.10;19.30;;;;;;;3.43;59.64;100587.40;112322;1245;21951;-79
2023/04/27 01:27:06;;;;;;;33.00;19.90;;;;;;;3.40;59.76;100587.94;112275;1245;23603;-79
2023/04/27 01:29:37;;;;;;;27.80;17.50;;;;;;;3.40;59.70;100587.08;112649;1245;22199;-80
2023/04/27 01:32:11;;;;;;;28.90;18.20;;;;;;;3.40;60.04;100585.70;111964;1250;22019;-79
2023/04/27 01:34:40;;;;;;;29.20;19.40;;;;;;;3.42;60.09;100582.61;112075;1244;23005;-80
2023/04/27 01:37:09;;;;;;;28.10;18.80;;;;;;;3.41;60.07;100580.18;112341;1244;21951;-79
2023/04/27 01:39:41;;;;;;;27.00;19.40;;;;;;;3.40;60.23;100579.67;112571;1239;21956;-80
2023/04/27 01:42:12;;;;;;;35.00;20.90;;;;;;;3.37;60.30;100580.20;112943;1239;23013;-80
2023/04/27 01:44:41;;;;;;;32.00;21.80;;;;;;;3.33;60.30;100582.30;113333;1239;22310;-80
2023/04/27 01:47:14;;;;;;;34.50;22.00;;;;;;;3.28;60.36;100582.48;113133;1239;21938;-79
2023/04/27 01:49:44;;;;;;;28.80;19.60;;;;;;;3.24;60.30;100585.08;113048;1234;21948;-79
2023/04/27 01:52:16;;;;;;;29.70;19.70;;;;;;;3.20;60.41;100586.81;113143;1239;23692;-79
2023/04/27 01:54:50;;;;;;;26.90;20.20;;;;;;;3.17;60.53;100585.45;113043;1239;21960;-80
2023/04/27 01:57:24;;;;;;;28.70;17.90;;;;;;;3.15;60.71;100586.14;112919;1239;21951;-80
2023/04/27 01:59:59;;;;;;;25.80;17.20;;;;;;;3.13;60.84;100587.87;112922;1239;21941;-80
2023/04/27 02:02:28;;;;;;;28.60;17.40;;;;;;;3.12;60.98;100589.08;112302;1245;21948;-79
2023/04/27 02:04:58;;;;;;;30.50;19.80;;;;;;;3.10;61.06;100590.29;111740;1252;21989;-79
2023/04/27 02:07:30;;;;;;;30.80;20.40;;;;;;;3.09;61.13;100591.31;111459;1251;21960;-79
2023/04/27 02:09:59;;;;;;;29.70;19.40;;;;;;;3.08;61.31;100593.73;111002;1257;22215;-79
2023/04/27 02:12:28;;;;;;;33.50;20.50;;;;;;;3.06;61.36;100595.13;111005;1257;22447;-79
2023/04/27 02:14:57;;;;;;;29.80;21.70;;;;;;;3.03;61.34;100594.27;111148;1257;22399;-79
2023/04/27 02:17:30;;;;;;;33.60;22.60;;;;;;;2.99;61.31;100591.88;111261;1251;21995;-80
2023/04/27 02:20:01;;;;;;;37.20;25.30;;;;;;;2.96;61.38;100598.06;111676;1245;22493;-80
2023/04/27 02:22:33;;;;;;;34.30;23.80;;;;;;;2.93;61.57;100600.83;112432;1240;21946;-79
2023/04/27 02:25:07;;;;;;;36.20;24.80;;;;;;;2.90;61.80;100596.88;112188;1245;21973;-79
2023/04/27 02:27:40;;;;;;;37.00;26.30;;;;;;;2.87;61.82;100596.71;112282;1239;23021;-79
2023/04/27 02:30:13;;;;;;;41.00;27.50;;;;;;;2.84;61.91;100596.20;112578;1243;22362;-79
2023/04/27 02:32:46;;;;;;;39.70;28.90;;;;;;;2.82;62.13;100599.30;112806;1244;23681;-79
2023/04/27 02:35:16;;;;;;;36.20;26.60;;;;;;;2.80;62.35;100597.42;112606;1244;22682;-80
2023/04/27 02:37:45;;;;;;;36.60;26.10;;;;;;;2.78;62.29;100595.87;112834;1244;21978;-80
2023/04/27 02:40:19;;;;;;;32.20;22.70;;;;;;;2.75;62.40;100597.09;112569;1244;21952;-80
2023/04/27 02:42:48;;;;;;;28.70;18.20;;;;;;;2.73;62.81;100596.74;112678;1238;22027;-79
2023/04/27 02:45:23;;;;;;;;;;;;;;;2.72;63.03;100597.95;113139;1238;21920;-80
2023/04/27 02:47:54;;;;;;;23.70;14.10;;;;;;;2.66;63.28;100596.23;113384;1234;21950;-80
2023/04/27 02:50:29;;;;;;;23.10;13.60;;;;;;;2.69;63.30;100600.88;112949;1241;22017;-80
2023/04/27 02:53:00;;;;;;;23.30;15.30;;;;;;;2.76;63.42;100600.52;112250;1247;21987;-81
2023/04/27 02:55:32;;;;;;;19.80;13.00;;;;;;;2.81;63.46;100601.55;112129;1247;23588;-81
2023/04/27 02:58:04;;;;;;;23.50;14.60;;;;;;;2.86;63.35;100602.23;112307;1247;22845;-80
2023/04/27 03:00:44;;;;;;;;;;;;;;;2.90;63.31;100604.61;111775;1250;21947;-81
2023/04/27 03:03:13;;;;;;;20.60;14.50;;;;;;;2.85;63.56;100604.11;111843;1250;21956;-79
2023/04/27 03:05:43;;;;;;;23.20;14.00;;;;;;;2.86;63.42;100608.06;111581;1244;23191;-81
2023/04/27 03:08:12;;;;;;;25.00;14.40;;;;;;;2.91;63.19;100608.56;111989;1250;21965;-81
2023/04/27 03:10:49;;;;;;;19.90;13.60;;;;;;;2.92;63.25;100611.65;111722;1250;21990;-81
2023/04/27 03:13:27;;;;;;;21.00;14.50;;;;;;;2.95;63.14;100608.73;111731;1251;21997;-79
2023/04/27 03:15:56;;;;;;;29.20;17.40;;;;;;;2.95;63.22;100613.89;111698;1249;21959;-80
2023/04/27 03:18:25;;;;;;;21.20;13.70;;;;;;;2.98;63.18;100617.15;112661;1238;23722;-80
2023/04/27 03:21:04;;;;;;;24.10;14.20;;;;;;;3.00;63.11;100621.10;113283;1238;24367;-80
2023/04/27 03:23:34;;;;;;;22.40;15.10;;;;;;;3.00;63.07;100621.44;113179;1238;23674;-79
2023/04/27 03:26:19;;;;;;;26.40;15.50;;;;;;;3.01;62.95;100622.48;113313;1238;22698;-80
2023/04/27 03:28:50;;;;;;;26.20;17.70;;;;;;;2.99;62.94;100619.20;112980;1238;21967;-80
2023/04/27 03:31:22;;;;;;;37.60;22.90;;;;;;;2.99;62.90;100625.39;113194;1238;23684;-81
2023/04/27 03:33:54;;;;;;;40.10;24.90;;;;;;;2.97;62.78;100625.05;113363;1234;23016;-80
2023/04/27 03:36:23;;;;;;;39.90;24.80;;;;;;;2.96;62.81;100627.80;113828;1234;21947;-80
2023/04/27 03:38:52;;;;;;;45.10;28.80;;;;;;;2.94;62.86;100630.90;113535;1234;21975;-80
2023/04/27 03:41:21;;;;;;;39.30;24.50;;;;;;;2.94;62.91;100626.95;112902;1240;21959;-80
2023/04/27 03:43:53;;;;;;;36.70;23.30;;;;;;;2.95;63.16;100629.01;112800;1240;23075;-79
2023/04/27 03:46:22;;;;;;;39.10;25.60;;;;;;;2.96;63.19;100629.02;112835;1232;21954;-79
2023/04/27 03:48:51;;;;;;;47.10;24.20;;;;;;;2.95;63.14;100623.02;112836;1240;21937;-78
2023/04/27 03:51:23;;;;;;;42.40;23.70;;;;;;;2.99;63.28;100626.95;112902;1240;21927;-81
2023/04/27 03:54:04;;;;;;;;;;;;;;;3.00;63.31;100633.80;112939;1240;22435;-80
2023/04/27 03:56:35;;;;;;;39.50;21.70;;;;;;;2.94;63.58;100637.44;113014;1240;21984;-80
2023/04/27 03:59:05;;;;;;;42.40;29.10;;;;;;;2.98;63.68;100640.19;113102;1240;22478;-79
2023/04/27 04:01:43;;;;;;;57.40;41.30;;;;;;;3.04;63.72;100641.89;113164;1240;23793;-80
2023/04/27 04:04:14;;;;;;;;;;;;;;;3.14;63.74;100645.99;112723;1239;21933;-79
2023/04/27 04:06:46;;;;;;;61.70;39.20;;;;;;;3.12;63.97;100646.86;113489;1234;23672;-79
2023/04/27 04:09:19;;;;;;;61.80;50.30;;;;;;;3.25;64.45;100651.81;113693;1234;23559;-80
2023/04/27 04:11:55;;;;;;;55.10;36.40;;;;;;;3.46;64.93;100656.73;113535;1234;21944;-79
2023/04/27 04:14:27;;;;;;;22.50;18.60;;;;;;;3.66;64.67;100658.36;113453;1234;21978;-80
2023/04/27 04:16:57;;;;;;;;;;;;;;;3.85;64.72;100659.14;113798;1234;23686;-80
2023/04/27 04:19:32;;;;;;;26.30;13.30;;;;;;;4.03;65.08;100660.76;113266;1238;21975;-80
2023/04/27 04:22:05;;;;;;;20.50;11.80;;;;;;;4.26;64.83;100666.13;113243;1238;23674;-79
2023/04/27 04:24:34;;;;;;;19.70;11.80;;;;;;;4.45;64.39;100665.98;112449;1242;21974;-80
2023/04/27 04:27:04;;;;;;;15.10;11.50;;;;;;;4.63;63.79;100665.50;112304;1243;23256;-79
2023/04/27 04:29:39;;;;;;;17.80;11.60;;;;;;;4.84;63.47;100663.09;112852;1243;21979;-78
2023/04/27 04:32:16;;;;;;;16.20;11.00;;;;;;;5.07;63.16;100669.41;112731;1242;22015;-79
2023/04/27 04:34:50;;;;;;;20.50;12.30;;;;;;;5.29;62.74;100670.39;112253;1242;23013;-79
2023/04/27 04:37:22;;;;;;;19.70;12.50;;;;;;;5.45;61.89;100674.17;113043;1238;23035;-79
2023/04/27 04:39:51;;;;;;;18.20;12.90;;;;;;;5.62;61.39;100671.23;113530;1238;22005;-79
2023/04/27 04:42:21;;;;;;;20.20;12.20;;;;;;;5.78;60.90;100675.34;112678;1239;21958;-80
2023/04/27 04:44:52;;;;;;;16.80;11.30;;;;;;;5.95;60.54;100677.21;112535;1239;24428;-79
2023/04/27 04:47:21;;;;;;;17.00;11.30;;;;;;;6.15;60.29;100679.88;112921;1239;21965;-79
2023/04/27 04:49:51;;;;;;;15.80;10.90;;;;;;;6.38;60.04;100680.58;112160;1242;22864;-79
2023/04/27 04:52:20;;;;;;;14.60;11.10;;;;;;;6.59;59.61;100683.19;112253;1248;23704;-80
2023/04/27 04:54:59;;;;;;;16.40;11.50;;;;;;;6.80;59.26;100681.45;112062;1248;22282;-79
2023/04/27 04:57:32;;;;;;;19.40;11.00;;;;;;;7.02;58.65;100681.25;111891;1248;21951;-79
2023/04/27 05:00:09;;;;;;;20.60;11.90;;;;;;;7.22;58.13;100683.49;112094;1245;22415;-81
2023/04/27 05:02:40;;;;;;;17.00;10.90;;;;;;;7.41;57.63;100685.55;112107;1249;21953;-82
2023/04/27 05:05:16;;;;;;;18.90;11.00;;;;;;;7.57;57.12;100690.77;111813;1249;23125;-80
2023/04/27 05:07:50;;;;;;;15.80;10.10;;;;;;;7.64;56.33;100692.54;112182;1245;22070;-80
2023/04/27 05:10:24;;;;;;;17.20;10.80;;;;;;;7.69;55.58;100694.17;112332;1244;21956;-80
2023/04/27 05:12:55;;;;;;;18.20;11.00;;;;;;;7.71;55.18;100694.99;112648;1244;23237;-79
2023/04/27 05:15:27;;;;;;;12.60;9.40;;;;;;;7.71;54.70;100698.11;111971;1249;21960;-80
2023/04/27 05:17:55;;;;;;;14.20;9.60;;;;;;;7.68;54.50;100694.19;111274;1254;23616;-78
2023/04/27 05:20:26;;;;;;;15.10;10.90;;;;;;;7.71;54.65;100698.64;111090;1254;22014;-80
2023/04/27 05:22:54;;;;;;;14.50;10.20;;;;;;;7.76;54.47;100695.42;111421;1254;24548;-80
2023/04/27 05:25:22;;;;;;;16.00;11.40;;;;;;;7.73;54.39;100697.73;111040;1254;21964;-80
2023/04/27 05:27:50;;;;;;;18.10;11.60;;;;;;;7.77;54.35;100695.40;111307;1250;22738;-81
2023/04/27 05:30:18;;;;;;;17.60;10.10;;;;;;;7.82;54.33;100702.22;111771;1250;22941;-81
2023/04/27 05:32:47;;;;;;;18.40;11.10;;;;;;;7.88;54.33;100701.75;111473;1244;23026;-81
2023/04/27 05:35:15;;;;;;;14.90;11.20;;;;;;;8.00;54.51;100703.92;112475;1239;21998;-80
2023/04/27 05:37:43;;;;;;;16.80;12.20;;;;;;;8.13;54.41;100708.66;113049;1234;21906;-79
2023/04/27 05:40:11;;;;;;;14.50;10.50;;;;;;;8.32;54.34;100708.08;113644;1234;21972;-79
2023/04/27 05:42:41;;;;;;;15.30;11.00;;;;;;;8.48;54.00;100709.80;113642;1234;21963;-79
2023/04/27 05:45:12;;;;;;;18.60;10.10;;;;;;;8.68;54.11;100707.24;113532;1234;23601;-80
2023/04/27 05:47:42;;;;;;;19.10;11.10;;;;;;;9.00;53.93;100712.53;112877;1240;24369;-79
2023/04/27 05:50:11;;;;;;;16.30;10.00;;;;;;;9.26;53.37;100712.04;113080;1240;23025;-79
2023/04/27 05:52:40;;;;;;;16.30;10.10;;;;;;;9.51;52.77;100711.38;112729;1240;21962;-79
2023/04/27 05:55:09;;;;;;;14.90;9.50;;;;;;;9.81;52.63;100710.00;112417;1244;23841;-79
2023/04/27 05:57:38;;;;;;;14.30;9.60;;;;;;;10.10;51.74;100718.73;112370;1244;21953;-78
2023/04/27 06:00:21;;;;;;;16.00;9.50;;;;;;;10.44;51.78;100724.33;112178;1250;23613;-79
2023/04/27 06:02:50;;;;;;;14.50;9.90;;;;;;;10.95;51.21;100721.82;111619;1254;21960;-79
2023/04/27 06:05:20;;;;;;;16.10;9.90;;;;;;;11.32;50.15;100723.17;111365;1250;21957;-79
2023/04/27 06:07:52;;;;;;;17.80;9.60;;;;;;;11.55;48.46;100722.55;111460;1250;23694;-77
2023/04/27 06:10:30;;;;;;;14.50;10.80;;;;;;;11.61;47.98;100717.59;111832;1250;21978;-80
2023/04/27 06:13:02;;;;;;;14.90;11.20;;;;;;;11.76;47.73;100724.40;111764;1250;21947;-80
2023/04/27 06:15:33;;;;;;;14.20;8.80;;;;;;;12.10;48.05;100728.37;111770;1250;22207;-79
2023/04/27 06:18:04;;;;;;;13.50;8.70;;;;;;;12.36;46.88;100727.73;111938;1245;21955;-81
2023/04/27 06:20:46;;;;;;;15.50;9.10;;;;;;;12.43;45.80;100724.84;113114;1234;21976;-79
2023/04/27 06:23:15;;;;;;;13.00;7.40;;;;;;;12.55;45.89;100724.02;113701;1234;21936;-79
2023/04/27 06:25:51;;;;;;;10.50;6.90;;;;;;;12.66;45.42;100722.67;113085;1240;21974;-83
2023/04/27 06:28:32;;;;;;;9.70;7.10;;;;;;;12.66;44.66;100726.04;113255;1240;23584;-81
2023/04/27 06:31:06;;;;;;;9.40;6.80;;;;;;;12.61;44.78;100727.42;112646;1240;21948;-83
2023/04/27 06:33:40;;;;;;;11.60;7.70;;;;;;;12.90;45.46;100730.80;113185;1240;21974;-80
2023/04/27 06:36:09;;;;;;;9.60;7.00;;;;;;;13.39;45.32;100728.41;112915;1240;22022;-81
2023/04/27 06:38:39;;;;;;;11.50;6.60;;;;;;;13.84;44.37;100727.30;113028;1240;21954;-79
2023/04/27 06:41:08;;;;;;;8.90;7.40;;;;;;;13.94;42.62;100727.02;112510;1240;23606;-80
2023/04/27 06:43:36;;;;;;;10.90;6.50;;;;;;;13.63;41.45;100729.95;113032;1234;21942;-78
2023/04/27 06:46:10;;;;;;;12.50;6.40;;;;;;;13.13;41.11;100732.63;113678;1234;22635;-78
2023/04/27 06:48:40;;;;;;;16.70;10.90;;;;;;;12.63;41.66;100736.07;113611;1234;22953;-78
2023/04/27 06:51:08;;;;;;;14.70;6.80;;;;;;;12.35;42.38;100735.78;113608;1234;23715;-80
2023/04/27 06:53:38;;;;;;;9.70;6.60;;;;;;;12.11;42.77;100735.34;113600;1234;21931;-78
2023/04/27 06:56:11;;;;;;;11.30;6.20;;;;;;;11.95;43.23;100737.85;113696;1227;21969;-80
2023/04/27 06:58:39;;;;;;;12.50;6.70;;;;;;;11.65;43.41;100740.80;113621;1234;22678;-78
2023/04/27 07:01:08;;;;;;;15.70;7.80;;;;;;;11.35;43.96;100741.55;113576;1234;21937;-78
2023/04/27 07:03:37;;;;;;;13.50;8.80;;;;;;;11.14;44.46;100744.52;113526;1234;21938;-77
2023/04/27 07:06:06;;;;;;;15.40;9.90;;;;;;;11.12;45.28;100744.04;113543;1234;23059;-79
2023/04/27 07:08:35;;;;;;;17.70;11.30;;;;;;;11.22;45.44;100740.39;113463;1234;21980;-78
2023/04/27 07:11:05;;;;;;;14.90;10.00;;;;;;;11.41;45.83;100740.27;113556;1234;21948;-79
2023/04/27 07:13:34;;;;;;;12.00;8.70;;;;;;;11.67;45.85;100746.16;113592;1234;22819;-78
2023/04/27 07:16:02;;;;;;;15.20;8.20;;;;;;;11.95;45.89;100745.15;113629;1234;21962;-78
2023/04/27 07:18:39;;;;;;;14.50;8.90;;;;;;;12.33;45.53;100741.63;112699;1239;22779;-78
2023/04/27 07:21:14;;;;;;;10.80;7.70;;;;;;;12.69;45.14;100743.86;113034;1239;22822;-79
2023/04/27 07:23:45;;;;;;;11.30;8.70;;;;;;;13.16;44.66;100740.53;113250;1239;23749;-78
2023/04/27 07:26:13;;;;;;;11.80;8.70;;;;;;;13.58;43.31;100738.95;113304;1239;23573;-79
2023/04/27 07:28:46;;;;;;;14.20;6.80;;;;;;;13.90;42.33;100730.88;113236;1239;23792;-78
2023/04/27 07:31:15;;;;;;;9.20;6.50;;;;;;;14.34;42.39;100734.77;112871;1239;22305;-76
2023/04/27 07:33:43;;;;;;;12.90;7.50;;;;;;;14.89;41.48;100734.60;113346;1239;23573;-77
2023/04/27 07:36:14;;;;;;;13.80;7.30;;;;;;;15.36;40.51;100734.34;113132;1231;22030;-79
2023/04/27 07:38:46;;;;;;;11.80;6.90;;;;;;;15.68;39.14;100731.12;113603;1234;21950;-81
2023/04/27 07:41:15;;;;;;;7.20;4.90;;;;;;;15.91;38.47;100735.52;113616;1234;21985;-80
2023/04/27 07:43:44;;;;;;;8.20;4.30;;;;;;;16.16;37.54;100737.13;113682;1234;23633;-79
2023/04/27 07:46:17;;;;;;;6.60;3.90;;;;;;;16.39;36.50;100739.06;113668;1234;21947;-77
2023/04/27 07:48:51;;;;;;;10.10;4.60;;;;;;;16.54;35.93;100740.64;113636;1234;21948;-79
2023/04/27 07:51:24;;;;;;;6.60;3.70;;;;;;;16.66;35.63;100738.42;113560;1234;21927;-78
2023/04/27 07:53:54;;;;;;;7.60;4.40;;;;;;;16.96;35.75;100735.95;113688;1234;22413;-78
2023/04/27 07:56:25;;;;;;;8.80;4.00;;;;;;;17.34;35.08;100736.90;113656;1234;21966;-79
2023/04/27 07:58:55;;;;;;;8.00;3.60;;;;;;;17.75;34.54;100738.69;113682;1234;21953;-79
2023/04/27 08:01:27;;;;;;;8.10;4.20;;;;;;;18.18;34.07;100736.01;113666;1234;21964;-79
2023/04/27 08:03:55;;;;;;;8.10;4.90;;;;;;;18.50;32.62;100738.23;113580;1234;22984;-80
2023/04/27 08:06:27;;;;;;;67.00;8.50;;;;;;;18.44;31.77;100740.33;113729;1234;23782;-75
2023/04/27 08:08:59;;;;;;;11.90;3.70;;;;;;;18.41;31.65;100735.30;113515;1234;23758;-80
2023/04/27 08:11:34;;;;;;;9.60;4.90;;;;;;;18.33;31.43;100735.21;113588;1234;23677;-73
2023/04/27 08:14:03;;;;;;;6.60;3.90;;;;;;;18.37;32.22;100734.45;113636;1234;21992;-75
2023/04/27 08:16:31;;;;;;;8.60;4.20;;;;;;;18.44;32.53;100734.88;113539;1234;23020;-77
2023/04/27 08:19:00;;;;;;;7.20;4.20;;;;;;;18.46;32.21;100735.08;113520;1234;21949;-77
2023/04/27 08:21:31;;;;;;;8.00;3.10;;;;;;;18.27;31.96;100737.55;113522;1234;23570;-77
2023/04/27 08:24:00;;;;;;;6.20;2.80;;;;;;;17.88;31.72;100734.86;113643;1234;21987;-78
2023/04/27 08:26:28;;;;;;;5.70;2.50;;;;;;;17.38;31.69;100736.85;113552;1234;21958;-83
2023/04/27 08:28:58;;;;;;;12.80;3.80;;;;;;;17.17;32.62;100740.19;113522;1234;21938;-77
2023/04/27 08:31:27;;;;;;;7.20;3.30;;;;;;;17.00;32.30;100742.42;113437;1234;21948;-77
2023/04/27 08:33:57;;;;;;;6.40;3.70;;;;;;;16.72;32.48;100742.27;113687;1225;21956;-81
2023/04/27 08:36:27;;;;;;;8.30;4.50;;;;;;;16.49;32.56;100744.27;113692;1234;22014;-80
2023/04/27 08:38:56;;;;;;;4.70;3.10;;;;;;;16.23;32.63;100744.84;113907;1234;23583;-80
2023/04/27 08:41:25;;;;;;;5.00;3.50;;;;;;;15.94;32.88;100741.85;113621;1234;21945;-79
2023/04/27 08:43:54;;;;;;;8.00;3.40;;;;;;;15.62;33.10;100745.09;113662;1234;23601;-80
2023/04/27 08:46:26;;;;;;;6.60;3.40;;;;;;;15.30;33.72;100745.19;113688;1234;24381;-79
2023/04/27 08:48:55;;;;;;;5.70;3.10;;;;;;;15.03;34.17;100745.50;113620;1234;21933;-81
2023/04/27 08:51:26;;;;;;;5.50;3.50;;;;;;;14.86;34.54;100748.42;113628;1234;21962;-80
2023/04/27 08:53:57;;;;;;;4.50;3.00;;;;;;;14.79;35.19;100751.92;113662;1234;22019;-81
2023/04/27 08:56:28;;;;;;;7.50;2.80;;;;;;;14.83;35.51;100750.33;113172;1238;21941;-82
2023/04/27 08:58:58;;;;;;;17.60;3.80;;;;;;;14.89;35.21;100747.94;112916;1238;21953;-77
2023/04/27 09:01:26;;;;;;;7.90;4.00;;;;;;;14.80;34.62;100751.35;113241;1238;22020;-79
2023/04/27 09:04:01;;;;;;;10.60;3.60;;;;;;;14.76;34.87;100750.64;112526;1243;22034;-76
2023/04/27 09:06:35;;;;;;;8.80;3.90;;;;;;;14.96;35.18;100749.70;112421;1243;21965;-80
2023/04/27 09:09:05;;;;;;;9.20;4.90;;;;;;;15.22;34.97;100750.48;112347;1244;21959;-74
2023/04/27 09:11:36;;;;;;;4.80;2.70;;;;;;;15.41;34.71;100754.25;112268;1239;21950;-74
2023/04/27 09:14:23;;;;;;;4.90;2.60;;;;;;;15.60;34.23;100758.16;110575;1239;23017;-76
2023/04/27 09:16:58;;;;;;;5.90;2.70;;;;;;;15.96;33.64;100753.52;112820;1239;21998;-75
2023/04/27 09:19:29;;;;;;;7.60;2.40;;;;;;;16.13;32.50;100748.92;112804;1239;21990;-74
2023/04/27 09:22:09;;;;;;;;;;;;;;;16.36;32.29;100734.77;113300;1234;21984;-75
2023/04/27 09:24:51;;;;;;;5.20;2.50;;;;;;;16.79;32.20;100735.75;113626;1234;22957;-76
2023/04/27 09:27:20;;;;;;;7.60;2.20;;;;;;;17.30;31.65;100730.82;113487;1234;22247;-76
2023/04/27 09:29:52;;;;;;;12.80;3.90;;;;;;;17.47;30.51;100730.85;113507;1234;23000;-76
2023/04/27 09:32:23;;;;;;;9.00;2.90;;;;;;;17.39;30.04;100737.86;113543;1234;21942;-74
2023/04/27 09:34:54;;;;;;;3.80;1.90;;;;;;;17.27;30.08;100734.90;113475;1234;23007;-73
2023/04/27 09:37:25;;;;;;;8.20;2.90;;;;;;;17.28;30.38;100731.80;113655;1234;21998;-77
2023/04/27 09:39:55;;;;;;;6.40;3.30;;;;;;;17.29;30.17;100730.03;113578;1234;22391;-77
2023/04/27 09:42:24;;;;;;;7.30;2.90;;;;;;;17.00;30.03;100731.36;113563;1234;23675;-74
2023/04/27 09:44:53;;;;;;;6.30;3.30;;;;;;;16.54;30.33;100732.91;113633;1234;21938;-74
2023/04/27 09:47:27;;;;;;;6.30;3.30;;;;;;;16.16;31.08;100734.83;113565;1234;22722;-74
2023/04/27 09:49:58;;;;;;;7.30;3.10;;;;;;;15.87;31.61;100736.76;113632;1234;21983;-73
2023/04/27 09:52:27;;;;;;;6.50;2.70;;;;;;;15.49;31.39;100737.90;113725;1234;22931;-74
2023/04/27 09:55:01;;;;;;;7.20;3.40;;;;;;;15.01;31.60;100743.14;113182;1237;22017;-76
2023/04/27 09:57:51;;;;;;;5.60;3.00;;;;;;;14.63;31.91;100746.73;113186;1230;23034;-73
2023/04/27 10:00:43;;;;;;;6.70;3.40;;;;;;;14.23;32.44;100744.59;113302;1234;21938;-76
2023/04/27 10:03:35;;;;;;;;;;;;;;;13.81;32.54;100743.52;113006;1237;22469;-74
2023/04/27 10:06:41;;;;;;;;;;;;;;;13.28;33.26;100754.89;113157;1237;22187;-73
2023/04/27 10:09:10;;;;;;;6.20;3.50;;;;;;;12.88;34.10;100760.05;113369;1237;22630;-75
2023/04/27 10:11:42;;;;;;;10.00;4.00;;;;;;;12.71;34.69;100766.35;113356;1237;21946;-73
2023/04/27 10:14:20;;;;;;;10.70;4.90;;;;;;;12.42;35.13;100771.48;113481;1234;22938;-76
2023/04/27 10:16:57;;;;;;;11.00;3.50;;;;;;;12.08;35.80;100772.25;113240;1234;21935;-75
2023/04/27 10:19:27;;;;;;;7.50;4.30;;;;;;;11.76;36.58;100777.02;113369;1234;23000;-75
2023/04/27 10:22:02;;;;;;;8.70;4.40;;;;;;;11.54;37.27;100777.66;113256;1234;21938;-74
2023/04/27 10:24:39;;;;;;;8.20;4.80;;;;;;;11.36;38.04;100774.24;113591;1234;24321;-76
2023/04/27 10:27:11;;;;;;;7.10;5.00;;;;;;;11.20;38.76;100772.01;113250;1234;22996;-74
2023/04/27 10:29:46;;;;;;;10.80;4.80;;;;;;;11.15;39.48;100770.42;113649;1234;22014;-77
2023/04/27 10:32:25;;;;;;;13.40;5.40;;;;;;;11.14;39.95;100775.14;113518;1234;21975;-77
2023/04/27 10:35:08;;;;;;;7.30;5.00;;;;;;;11.12;40.34;100776.27;113307;1234;22043;-75
2023/04/27 10:37:43;;;;;;;6.00;4.20;;;;;;;11.08;40.57;100775.19;113598;1234;23597;-76
2023/04/27 10:40:13;;;;;;;10.00;5.20;;;;;;;11.07;40.83;100772.80;113516;1234;21962;-75
2023/04/27 10:42:47;;;;;;;8.10;5.70;;;;;;;11.08;41.03;100771.02;113206;1234;22465;-75
2023/04/27 10:45:27;;;;;;;;;;;;;;;11.08;41.12;100769.96;113530;1234;24278;-75
2023/04/27 10:48:01;;;;;;;14.60;6.90;;;;;;;11.02;41.57;100771.58;113590;1234;21938;-76
2023/04/27 10:50:33;;;;;;;16.00;6.50;;;;;;;11.07;41.66;100774.52;113462;1234;23554;-75
2023/04/27 10:53:06;;;;;;;8.80;6.30;;;;;;;11.14;41.87;100774.64;113536;1234;23008;-75
2023/04/27 10:55:36;;;;;;;8.90;5.30;;;;;;;11.20;42.03;100775.67;113346;1234;23047;-76
2023/04/27 10:58:04;;;;;;;9.30;5.50;;;;;;;11.27;41.91;100778.73;113331;1234;21944;-75
2023/04/27 11:00:43;;;;;;;10.30;5.60;;;;;;;11.40;42.29;100775.52;113574;1234;22993;-74
2023/04/27 11:03:17;;;;;;;10.70;4.80;;;;;;;11.72;42.73;100771.06;113570;1234;22061;-73
2023/04/27 11:06:02;;;;;;;11.00;5.90;;;;;;;12.10;42.32;100770.08;113530;1234;21975;-74
2023/04/27 11:08:32;;;;;;;8.80;4.80;;;;;;;12.43;41.49;100766.38;113424;1234;22024;-74
2023/04/27 11:11:01;;;;;;;8.10;4.40;;;;;;;12.53;40.29;100765.80;113604;1234;21953;-74
2023/04/27 11:13:32;;;;;;;8.70;4.60;;;;;;;12.51;39.75;100763.63;113506;1234;21944;-74
2023/04/27 11:16:04;;;;;;;9.50;4.90;;;;;;;12.42;39.50;100756.98;113582;1234;22386;-76
2023/04/27 11:18:36;;;;;;;18.20;5.70;;;;;;;12.41;39.27;100765.92;113670;1234;21930;-74
2023/04/27 11:21:17;;;;;;;9.20;5.30;;;;;;;12.36;39.25;100766.81;113573;1234;21937;-77
2023/04/27 11:23:46;;;;;;;7.30;5.00;;;;;;;12.32;39.50;100765.73;113093;1239;21974;-75
2023/04/27 11:26:21;;;;;;;8.70;5.10;;;;;;;12.31;39.62;100767.20;113044;1239;22075;-75
2023/04/27 11:29:03;;;;;;;7.10;4.90;;;;;;;12.33;39.95;100770.07;113080;1239;21960;-80
2023/04/27 11:31:42;;;;;;;9.90;5.10;;;;;;;12.42;39.91;100771.27;113220;1239;21951;-75
2023/04/27 11:34:23;;;;;;;9.40;6.00;;;;;;;12.50;39.71;100767.84;113150;1239;21968;-72
2023/04/27 11:37:03;;;;;;;6.50;4.80;;;;;;;12.59;39.66;100770.63;113441;1239;21973;-75